Time;durP1;ratioP1;P1;durP2;ratioP2;P2;SDS_P1;SDS_P2;PMS_P1;PMS_P2;Temp;Humidity;BMP_temperature;BMP_pressure;BME280_temperature;BME280_humidity;BME280_pressure;Samples;Min_cycle;Max_cycle;Signal;HPM_P1;HPM_P2
2021/09/30 00:01:18;;;;;;;0.80;0.40;;;;;;;;;;5045842;28;20040;-60
2021/09/30 00:03:45;;;;;;;2.03;0.60;;;;;;;;;;5060807;28;20044;-61
2021/09/30 00:06:11;;;;;;;3.60;0.60;;;;;;;;;;5044523;28;20037;-63
2021/09/30 00:08:38;;;;;;;1.58;0.52;;;;;;;;;;5041594;28;20060;-64
2021/09/30 00:11:09;;;;;;;2.88;0.73;;;;;;;;;;5039722;28;20086;-61
2021/09/30 00:13:45;;;;;;;1.48;0.57;;;;;;;;;;5023982;28;20081;-59
2021/09/30 00:32:51;;;;;;;6.20;0.93;;;;;;;;;;5063669;28;20086;-65
2021/09/30 00:35:35;;;;;;;2.53;0.75;;;;;;;;;;5042400;28;20076;-64
2021/09/30 00:46:24;;;;;;;4.40;0.93;;;;;;;;;;5044228;28;20072;-60
2021/09/30 00:51:40;;;;;;;7.50;1.00;;;;;;;;;;5056893;28;20052;-64
2021/09/30 02:20:28;;;;;;;7.05;1.40;;;;;;;;;;5042590;28;19917;-60
2021/09/30 02:23:28;;;;;;;5.80;1.45;;;;;;;;;;5048052;28;20040;-59
2021/09/30 02:28:55;;;;;;;7.90;1.25;;;;;;;;;;4979928;28;20031;-63
2021/09/30 02:40:04;;;;;;;5.10;1.17;;;;;;;;;;5048510;28;20049;-59
2021/09/30 02:59:10;;;;;;;4.05;1.35;;;;;;;;;;5040584;28;20118;-62
2021/09/30 03:01:37;;;;;;;4.60;1.23;;;;;;;;;;5035446;28;20045;-63
2021/09/30 03:04:04;;;;;;;6.18;1.10;;;;;;;;;;5043127;28;20168;-63
2021/09/30 03:06:31;;;;;;;4.85;1.20;;;;;;;;;;5057867;28;20044;-63
2021/09/30 03:09:00;;;;;;;4.05;1.08;;;;;;;;;;5063288;28;20070;-59
2021/09/30 03:11:29;;;;;;;6.97;1.00;;;;;;;;;;5068362;28;20040;-60
2021/09/30 03:13:56;;;;;;;5.93;1.10;;;;;;;;;;5062351;28;20036;-60
2021/09/30 03:16:26;;;;;;;7.47;1.33;;;;;;;;;;5045196;28;20087;-61
2021/09/30 03:18:56;;;;;;;9.18;1.13;;;;;;;;;;5058416;28;20076;-61
2021/09/30 03:24:09;;;;;;;9.95;1.27;;;;;;;;;;5026860;28;20185;-59
2021/09/30 03:26:36;;;;;;;5.40;1.10;;;;;;;;;;5034889;28;20047;-63
2021/09/30 03:29:03;;;;;;;5.10;1.30;;;;;;;;;;5048138;28;20084;-62
2021/09/30 03:31:32;;;;;;;7.90;1.30;;;;;;;;;;5047938;28;20048;-61
2021/09/30 03:33:59;;;;;;;7.45;1.30;;;;;;;;;;5042523;28;20126;-63
2021/09/30 03:36:25;;;;;;;7.20;1.13;;;;;;;;;;5046471;28;20121;-60
2021/09/30 03:38:52;;;;;;;3.80;1.20;;;;;;;;;;5061603;28;20041;-62
2021/09/30 03:41:20;;;;;;;2.80;1.02;;;;;;;;;;5054879;28;20037;-64
2021/09/30 03:43:47;;;;;;;2.20;0.75;;;;;;;;;;5040179;28;20041;-63
2021/09/30 03:46:13;;;;;;;5.68;1.40;;;;;;;;;;5038592;28;20069;-61
2021/09/30 03:48:40;;;;;;;5.25;1.30;;;;;;;;;;5041431;28;20052;-63
2021/09/30 03:51:12;;;;;;;5.93;1.10;;;;;;;;;;5044325;28;20045;-60
2021/09/30 03:53:51;;;;;;;4.25;0.93;;;;;;;;;;5062045;28;20044;-61
2021/09/30 03:56:33;;;;;;;10.32;1.10;;;;;;;;;;5063604;28;20044;-61
2021/09/30 03:59:18;;;;;;;6.57;1.27;;;;;;;;;;5065070;28;20065;-64
2021/09/30 04:01:48;;;;;;;2.85;0.95;;;;;;;;;;5046291;28;20106;-63
2021/09/30 04:04:14;;;;;;;5.68;1.27;;;;;;;;;;5084850;28;20061;-61
2021/09/30 04:06:41;;;;;;;4.07;1.10;;;;;;;;;;5082046;28;20064;-62
2021/09/30 04:09:09;;;;;;;5.18;1.40;;;;;;;;;;5043771;28;20037;-62
2021/09/30 04:11:36;;;;;;;6.90;1.27;;;;;;;;;;5043692;28;20040;-64
2021/09/30 04:14:04;;;;;;;2.20;0.98;;;;;;;;;;5041719;28;20270;-62
2021/09/30 04:16:30;;;;;;;10.07;1.40;;;;;;;;;;5045575;28;20116;-62
2021/09/30 04:18:57;;;;;;;6.10;1.27;;;;;;;;;;5027664;28;20045;-60
2021/09/30 04:21:24;;;;;;;6.15;1.20;;;;;;;;;;5025912;28;20038;-63
2021/09/30 04:23:50;;;;;;;4.13;1.20;;;;;;;;;;5041208;28;20036;-60
2021/09/30 04:26:17;;;;;;;8.25;1.42;;;;;;;;;;5062473;28;20033;-59
2021/09/30 04:28:43;;;;;;;7.30;1.30;;;;;;;;;;5051323;28;20048;-67
2021/09/30 04:31:11;;;;;;;5.15;1.27;;;;;;;;;;5049849;28;20065;-65
2021/09/30 04:33:38;;;;;;;5.35;1.38;;;;;;;;;;5043236;28;20038;-63
2021/09/30 04:36:04;;;;;;;5.03;1.63;;;;;;;;;;5041855;28;20033;-60
2021/09/30 04:38:31;;;;;;;7.60;1.48;;;;;;;;;;5039733;28;20052;-61
2021/09/30 04:40:59;;;;;;;6.65;2.30;;;;;;;;;;5044342;28;20037;-60
2021/09/30 04:43:25;;;;;;;7.80;2.57;;;;;;;;;;5058792;28;20056;-65
2021/09/30 04:45:52;;;;;;;12.38;2.17;;;;;;;;;;5044921;28;20040;-60
2021/09/30 04:48:20;;;;;;;11.70;1.95;;;;;;;;;;5058926;28;20037;-59
2021/09/30 04:50:47;;;;;;;6.75;1.83;;;;;;;;;;5055121;28;20037;-61
2021/09/30 04:53:13;;;;;;;7.22;1.92;;;;;;;;;;5061082;28;20102;-63
2021/09/30 04:55:40;;;;;;;6.20;2.00;;;;;;;;;;5026075;28;20041;-61
2021/09/30 04:58:06;;;;;;;9.68;2.05;;;;;;;;;;5058103;28;20079;-64
2021/09/30 05:00:33;;;;;;;7.95;2.75;;;;;;;;;;5060409;28;20040;-64
2021/09/30 05:02:59;;;;;;;6.70;2.58;;;;;;;;;;5064924;28;20053;-63
2021/09/30 05:05:27;;;;;;;8.73;2.55;;;;;;;;;;5049486;28;20156;-64
2021/09/30 05:07:54;;;;;;;9.32;2.30;;;;;;;;;;5044741;28;20033;-61
2021/09/30 05:10:22;;;;;;;13.55;4.90;;;;;;;;;;5048126;28;20055;-60
2021/09/30 05:12:49;;;;;;;12.00;4.00;;;;;;;;;;5044383;28;20044;-60
2021/09/30 05:15:16;;;;;;;6.88;2.60;;;;;;;;;;5055271;28;20060;-60
2021/09/30 05:17:42;;;;;;;15.77;2.70;;;;;;;;;;5063415;28;20098;-63
2021/09/30 05:20:09;;;;;;;6.63;1.90;;;;;;;;;;5060441;28;20096;-65
2021/09/30 05:22:37;;;;;;;11.45;2.28;;;;;;;;;;5042421;28;20125;-60
2021/09/30 05:25:04;;;;;;;6.23;1.90;;;;;;;;;;5053944;28;20068;-59
2021/09/30 05:27:31;;;;;;;6.40;2.10;;;;;;;;;;5059468;28;20033;-63
2021/09/30 05:29:57;;;;;;;7.63;2.25;;;;;;;;;;5055729;28;20114;-59
2021/09/30 05:32:24;;;;;;;6.68;1.80;;;;;;;;;;5039466;28;20041;-64
2021/09/30 05:34:50;;;;;;;9.40;1.80;;;;;;;;;;5039516;28;20243;-66
2021/09/30 05:37:17;;;;;;;9.90;1.67;;;;;;;;;;5056169;28;20044;-61
2021/09/30 05:39:45;;;;;;;6.15;1.63;;;;;;;;;;5060997;28;20121;-62
2021/09/30 05:42:14;;;;;;;8.68;1.88;;;;;;;;;;5035662;28;20038;-64
2021/09/30 05:44:40;;;;;;;;;;;;;;;;;;5043234;28;20061;-62
2021/09/30 05:47:07;;;;;;;8.02;2.42;;;;;;;;;;5050785;28;19983;-60
2021/09/30 05:49:33;;;;;;;7.78;2.55;;;;;;;;;;5055070;28;20055;-60
2021/09/30 05:52:00;;;;;;;8.02;2.05;;;;;;;;;;5050350;28;20143;-64
2021/09/30 05:54:26;;;;;;;4.75;1.58;;;;;;;;;;5041143;28;20050;-61
2021/09/30 05:56:54;;;;;;;11.20;1.85;;;;;;;;;;5052981;28;20047;-65
2021/09/30 05:59:21;;;;;;;12.83;2.20;;;;;;;;;;5041493;28;20044;-61
2021/09/30 06:10:18;;;;;;;3.97;1.73;;;;;;;;;;5061197;28;20134;-59
2021/09/30 06:12:49;;;;;;;5.88;1.88;;;;;;;;;;5051940;28;20040;-62
2021/09/30 06:15:23;;;;;;;8.20;1.90;;;;;;;;;;5050563;28;20033;-64
2021/09/30 06:17:51;;;;;;;8.18;1.80;;;;;;;;;;5031747;28;20044;-63
2021/09/30 06:20:18;;;;;;;7.90;2.17;;;;;;;;;;5039298;28;20057;-61
2021/09/30 06:22:44;;;;;;;12.20;4.15;;;;;;;;;;5044992;28;20049;-64
2021/09/30 06:25:11;;;;;;;14.95;5.78;;;;;;;;;;5059132;28;20029;-61
2021/09/30 06:27:38;;;;;;;7.45;2.75;;;;;;;;;;5057622;28;20041;-62
2021/09/30 06:30:07;;;;;;;9.05;2.10;;;;;;;;;;5044675;28;20045;-62
2021/09/30 06:32:33;;;;;;;7.70;2.25;;;;;;;;;;5042717;28;20043;-60
2021/09/30 06:35:00;;;;;;;9.65;2.40;;;;;;;;;;5063381;28;20125;-64
2021/09/30 06:37:26;;;;;;;9.80;2.03;;;;;;;;;;5062854;28;20052;-61
2021/09/30 06:39:53;;;;;;;6.85;2.10;;;;;;;;;;5041796;28;20091;-61
2021/09/30 06:42:20;;;;;;;7.47;2.00;;;;;;;;;;5058601;28;20061;-63
2021/09/30 06:44:46;;;;;;;9.65;2.15;;;;;;;;;;5076561;28;20036;-63
2021/09/30 06:47:15;;;;;;;6.93;1.80;;;;;;;;;;5064311;28;20137;-58
2021/09/30 06:49:42;;;;;;;7.85;1.95;;;;;;;;;;5029412;28;20053;-64
2021/09/30 06:52:09;;;;;;;5.20;1.67;;;;;;;;;;5040523;28;20130;-61
2021/09/30 06:54:35;;;;;;;6.22;1.95;;;;;;;;;;5020934;28;20058;-60
2021/09/30 06:57:02;;;;;;;11.05;2.33;;;;;;;;;;5040624;28;20045;-62
2021/09/30 06:59:34;;;;;;;11.02;3.28;;;;;;;;;;5036912;28;20042;-65
2021/09/30 07:02:03;;;;;;;10.77;2.70;;;;;;;;;;5024268;28;20034;-64
2021/09/30 07:04:32;;;;;;;7.88;2.33;;;;;;;;;;5020939;28;20034;-63
2021/09/30 07:06:59;;;;;;;7.60;2.10;;;;;;;;;;5023970;28;20048;-62
2021/09/30 07:09:25;;;;;;;7.75;2.08;;;;;;;;;;5024887;28;20122;-58
2021/09/30 07:11:53;;;;;;;7.45;2.35;;;;;;;;;;5041680;28;20152;-63
2021/09/30 07:14:19;;;;;;;9.93;2.83;;;;;;;;;;5039807;28;20060;-59
2021/09/30 07:16:46;;;;;;;8.38;3.22;;;;;;;;;;5024103;28;20049;-63
2021/09/30 07:19:13;;;;;;;10.65;2.17;;;;;;;;;;5029125;28;20090;-61
2021/09/30 07:21:41;;;;;;;11.48;2.00;;;;;;;;;;5055091;28;20029;-63
2021/09/30 07:24:08;;;;;;;5.57;2.00;;;;;;;;;;5043133;28;20033;-58
2021/09/30 07:26:35;;;;;;;3.80;1.75;;;;;;;;;;5039758;28;20045;-60
2021/09/30 07:29:01;;;;;;;9.30;1.92;;;;;;;;;;5043008;28;20041;-61
2021/09/30 07:31:28;;;;;;;8.15;2.08;;;;;;;;;;5023159;28;20049;-60
2021/09/30 07:33:54;;;;;;;9.13;2.47;;;;;;;;;;5023553;28;20107;-61
2021/09/30 07:36:21;;;;;;;7.90;2.53;;;;;;;;;;5021388;28;20077;-63
2021/09/30 07:38:49;;;;;;;6.63;2.90;;;;;;;;;;5023027;28;20049;-65
2021/09/30 07:41:16;;;;;;;9.65;2.00;;;;;;;;;;5024500;28;20055;-61
2021/09/30 07:43:42;;;;;;;8.60;2.25;;;;;;;;;;5043193;28;20060;-61
2021/09/30 07:46:09;;;;;;;10.18;2.65;;;;;;;;;;5032627;28;20060;-62
2021/09/30 07:48:35;;;;;;;12.70;3.40;;;;;;;;;;5039626;28;20045;-60
2021/09/30 07:51:03;;;;;;;13.75;3.83;;;;;;;;;;5039552;28;20076;-59
2021/09/30 07:53:29;;;;;;;8.40;2.40;;;;;;;;;;5042954;28;20045;-60
2021/09/30 07:55:57;;;;;;;10.18;2.03;;;;;;;;;;5035490;28;20060;-57
2021/09/30 07:58:24;;;;;;;7.63;2.33;;;;;;;;;;5039320;28;20038;-57
2021/09/30 08:00:52;;;;;;;9.45;2.33;;;;;;;;;;5021339;28;20044;-59
2021/09/30 08:03:19;;;;;;;8.00;1.83;;;;;;;;;;5024330;28;20045;-61
2021/09/30 08:05:45;;;;;;;10.63;2.15;;;;;;;;;;5039238;28;20037;-57
2021/09/30 08:08:12;;;;;;;10.48;1.92;;;;;;;;;;5052446;28;20045;-59
2021/09/30 08:10:39;;;;;;;7.75;2.10;;;;;;;;;;5040921;28;20037;-58
2021/09/30 08:13:08;;;;;;;8.20;1.80;;;;;;;;;;5018575;28;20061;-57
2021/09/30 08:15:34;;;;;;;17.40;2.00;;;;;;;;;;5038772;28;20057;-59
2021/09/30 08:18:01;;;;;;;11.68;2.30;;;;;;;;;;5036570;28;20044;-62
2021/09/30 08:20:30;;;;;;;5.32;1.85;;;;;;;;;;5038627;28;20172;-61
2021/09/30 08:22:57;;;;;;;8.15;1.85;;;;;;;;;;5030233;28;20042;-58
2021/09/30 08:25:23;;;;;;;13.15;2.05;;;;;;;;;;5042803;28;20095;-64
2021/09/30 08:27:50;;;;;;;7.30;2.08;;;;;;;;;;5039259;28;20037;-63
2021/09/30 08:30:18;;;;;;;8.48;1.85;;;;;;;;;;5043621;28;20052;-58
2021/09/30 08:32:44;;;;;;;7.87;3.03;;;;;;;;;;5034035;28;20047;-61
2021/09/30 08:35:11;;;;;;;10.48;3.33;;;;;;;;;;5041632;28;20069;-61
2021/09/30 08:37:38;;;;;;;11.05;2.30;;;;;;;;;;5020870;28;20038;-57
2021/09/30 08:40:05;;;;;;;9.10;2.13;;;;;;;;;;5038702;28;20123;-60
2021/09/30 08:42:32;;;;;;;9.88;2.05;;;;;;;;;;5035330;28;20046;-58
2021/09/30 08:44:58;;;;;;;8.95;3.45;;;;;;;;;;5022897;28;20037;-58
2021/09/30 08:47:26;;;;;;;6.43;1.92;;;;;;;;;;5022227;28;20048;-60
2021/09/30 08:49:53;;;;;;;8.57;1.85;;;;;;;;;;5044463;28;20057;-58
2021/09/30 08:52:19;;;;;;;9.77;2.00;;;;;;;;;;5042995;28;20034;-61
2021/09/30 08:54:46;;;;;;;9.25;1.90;;;;;;;;;;5039059;28;20091;-59
2021/09/30 08:57:12;;;;;;;6.70;1.75;;;;;;;;;;5042953;28;20037;-58
2021/09/30 08:59:40;;;;;;;5.72;1.90;;;;;;;;;;5038275;28;20130;-58
2021/09/30 09:02:08;;;;;;;7.95;1.90;;;;;;;;;;5041718;28;20043;-58
2021/09/30 09:04:37;;;;;;;12.60;1.95;;;;;;;;;;5027783;28;20046;-57
2021/09/30 09:07:07;;;;;;;11.25;2.80;;;;;;;;;;5038400;28;20038;-59
2021/09/30 09:09:34;;;;;;;9.25;2.33;;;;;;;;;;5017975;28;20045;-57
2021/09/30 09:12:05;;;;;;;9.15;2.92;;;;;;;;;;5035675;28;20033;-59
2021/09/30 09:14:32;;;;;;;15.80;2.42;;;;;;;;;;5037678;28;20056;-57
2021/09/30 09:17:00;;;;;;;15.77;2.05;;;;;;;;;;5039491;28;20037;-60
2021/09/30 09:19:30;;;;;;;9.15;1.98;;;;;;;;;;5032834;28;20038;-60
2021/09/30 09:22:03;;;;;;;7.40;1.70;;;;;;;;;;5038417;28;20050;-59
2021/09/30 09:24:29;;;;;;;4.88;1.60;;;;;;;;;;5022212;28;20045;-60
2021/09/30 09:26:58;;;;;;;6.38;1.80;;;;;;;;;;5055392;28;20114;-57
2021/09/30 09:29:25;;;;;;;9.60;2.08;;;;;;;;;;5051668;28;20033;-58
2021/09/30 09:31:53;;;;;;;5.35;1.50;;;;;;;;;;5036788;28;20107;-59
2021/09/30 09:34:20;;;;;;;10.32;1.98;;;;;;;;;;5021233;28;20139;-57
2021/09/30 09:36:49;;;;;;;6.90;1.75;;;;;;;;;;5017104;28;20041;-60
2021/09/30 09:39:15;;;;;;;;;;;;;;;;;;5020128;28;20037;-59
2021/09/30 09:41:45;;;;;;;4.20;1.08;;;;;;;;;;5026259;28;19921;-57
2021/09/30 09:44:11;;;;;;;3.70;1.45;;;;;;;;;;5040053;28;20056;-60
2021/09/30 09:46:39;;;;;;;6.97;1.50;;;;;;;;;;5031968;28;20122;-58
2021/09/30 09:49:08;;;;;;;10.45;1.65;;;;;;;;;;5043925;28;20049;-60
2021/09/30 09:51:35;;;;;;;10.70;1.80;;;;;;;;;;5056192;28;20097;-58
2021/09/30 09:54:02;;;;;;;7.80;1.60;;;;;;;;;;5061789;28;20045;-58
2021/09/30 09:56:29;;;;;;;6.93;1.55;;;;;;;;;;5051340;28;20110;-60
2021/09/30 09:58:57;;;;;;;8.68;1.38;;;;;;;;;;5058119;28;20058;-59
2021/09/30 10:01:26;;;;;;;10.68;2.42;;;;;;;;;;5031677;28;20051;-61
2021/09/30 10:03:58;;;;;;;9.32;2.22;;;;;;;;;;5064267;28;20041;-60
2021/09/30 10:06:29;;;;;;;8.65;1.60;;;;;;;;;;5036818;28;20040;-58
2021/09/30 10:08:55;;;;;;;6.25;1.30;;;;;;;;;;5048970;28;20041;-59
2021/09/30 10:11:22;;;;;;;11.65;1.25;;;;;;;;;;5046174;28;20066;-58
2021/09/30 10:13:49;;;;;;;7.80;1.20;;;;;;;;;;5044442;28;20072;-57
2021/09/30 10:16:25;;;;;;;8.98;1.50;;;;;;;;;;5041426;28;20065;-57
2021/09/30 10:18:51;;;;;;;9.05;1.55;;;;;;;;;;5043502;28;20047;-58
2021/09/30 10:21:18;;;;;;;9.25;1.20;;;;;;;;;;5041841;28;20048;-59
2021/09/30 10:23:49;;;;;;;5.03;1.15;;;;;;;;;;5062945;28;20048;-58
2021/09/30 10:26:17;;;;;;;9.52;1.20;;;;;;;;;;5063250;28;20040;-60
2021/09/30 10:28:45;;;;;;;5.63;1.02;;;;;;;;;;5059616;28;20036;-58
2021/09/30 10:31:27;;;;;;;7.82;1.55;;;;;;;;;;5064543;28;20047;-57
2021/09/30 10:33:54;;;;;;;5.35;1.67;;;;;;;;;;5042886;28;20114;-59
2021/09/30 10:36:34;;;;;;;10.90;2.80;;;;;;;;;;5043634;28;20130;-60
2021/09/30 10:39:29;;;;;;;6.15;1.42;;;;;;;;;;5039368;28;20037;-57
2021/09/30 10:41:57;;;;;;;8.15;1.13;;;;;;;;;;4996894;28;20052;-59
2021/09/30 10:44:24;;;;;;;5.50;1.00;;;;;;;;;;5038404;28;20114;-59
2021/09/30 10:46:53;;;;;;;5.65;1.10;;;;;;;;;;5044494;28;20296;-58
2021/09/30 10:49:40;;;;;;;11.35;1.20;;;;;;;;;;5055918;28;21119;-58
2021/09/30 10:52:31;;;;;;;6.75;0.95;;;;;;;;;;5081968;28;20055;-58
2021/09/30 10:55:25;;;;;;;6.40;1.20;;;;;;;;;;5040870;28;20041;-59
2021/09/30 10:57:52;;;;;;;3.90;0.90;;;;;;;;;;5039941;28;20354;-59
2021/09/30 11:00:38;;;;;;;4.82;1.00;;;;;;;;;;5030766;28;20040;-58
2021/09/30 11:03:22;;;;;;;6.03;1.15;;;;;;;;;;5019870;28;20045;-58
2021/09/30 11:06:07;;;;;;;3.72;0.82;;;;;;;;;;5040813;28;20074;-60
2021/09/30 11:08:34;;;;;;;4.03;0.80;;;;;;;;;;5031959;28;20045;-57
2021/09/30 11:11:13;;;;;;;8.50;1.10;;;;;;;;;;5027820;28;20102;-57
2021/09/30 11:13:41;;;;;;;4.72;1.27;;;;;;;;;;5039512;28;20051;-59
2021/09/30 11:16:09;;;;;;;8.05;0.85;;;;;;;;;;5043700;28;20077;-58
2021/09/30 11:18:49;;;;;;;5.35;1.13;;;;;;;;;;5057161;28;20043;-59
2021/09/30 11:21:36;;;;;;;7.60;1.02;;;;;;;;;;5043589;28;20065;-57
2021/09/30 11:24:04;;;;;;;5.30;1.00;;;;;;;;;;5039946;28;20052;-60
2021/09/30 11:26:32;;;;;;;7.05;1.30;;;;;;;;;;5043182;28;20053;-60
2021/09/30 11:29:21;;;;;;;5.65;1.08;;;;;;;;;;5050154;28;20055;-58
2021/09/30 11:31:49;;;;;;;4.95;1.02;;;;;;;;;;5029108;28;20061;-58
2021/09/30 11:34:19;;;;;;;4.63;1.10;;;;;;;;;;5039932;28;20049;-61
2021/09/30 11:36:46;;;;;;;8.98;1.02;;;;;;;;;;5043595;28;20048;-61
2021/09/30 11:39:13;;;;;;;3.33;0.90;;;;;;;;;;5030308;28;20039;-59
2021/09/30 11:41:42;;;;;;;9.25;1.52;;;;;;;;;;5045025;28;20037;-60
2021/09/30 11:44:14;;;;;;;6.78;1.20;;;;;;;;;;5064818;28;20111;-58
2021/09/30 11:46:42;;;;;;;2.08;0.90;;;;;;;;;;5042176;28;20040;-59
2021/09/30 11:49:09;;;;;;;5.13;1.33;;;;;;;;;;5045109;28;20033;-58
2021/09/30 11:51:39;;;;;;;12.85;2.85;;;;;;;;;;5041569;28;20089;-57
2021/09/30 11:54:06;;;;;;;5.30;1.00;;;;;;;;;;5046707;28;20045;-58
2021/09/30 11:56:38;;;;;;;5.53;1.37;;;;;;;;;;5031516;28;20036;-58
2021/09/30 11:59:06;;;;;;;3.45;1.02;;;;;;;;;;5026907;28;20179;-57
2021/09/30 12:01:33;;;;;;;8.95;1.33;;;;;;;;;;5035844;28;20044;-58
2021/09/30 12:04:00;;;;;;;6.32;1.48;;;;;;;;;;5045648;28;20041;-57
2021/09/30 12:06:38;;;;;;;8.25;0.98;;;;;;;;;;5019829;28;20122;-58
2021/09/30 12:09:07;;;;;;;2.40;0.80;;;;;;;;;;5026719;28;20115;-58
2021/09/30 12:11:35;;;;;;;9.85;1.55;;;;;;;;;;5049411;28;20020;-58
2021/09/30 12:14:02;;;;;;;4.13;1.30;;;;;;;;;;5062951;28;20072;-57
2021/09/30 12:16:28;;;;;;;3.05;1.20;;;;;;;;;;5048703;28;20037;-57
2021/09/30 12:18:58;;;;;;;8.15;1.05;;;;;;;;;;5081857;28;20068;-58
2021/09/30 12:21:34;;;;;;;6.10;1.10;;;;;;;;;;5058094;28;20047;-57
2021/09/30 12:24:02;;;;;;;6.03;1.33;;;;;;;;;;5044386;28;20040;-57
2021/09/30 12:26:30;;;;;;;5.10;1.20;;;;;;;;;;5042202;28;20076;-56
2021/09/30 12:28:56;;;;;;;8.73;1.23;;;;;;;;;;5045227;28;20262;-58
2021/09/30 12:31:24;;;;;;;6.45;1.02;;;;;;;;;;5043678;28;20053;-57
2021/09/30 12:33:51;;;;;;;2.40;0.80;;;;;;;;;;5044676;28;20044;-58
2021/09/30 12:36:18;;;;;;;6.30;1.17;;;;;;;;;;5044087;28;20033;-56
2021/09/30 12:38:55;;;;;;;6.72;0.82;;;;;;;;;;5053882;28;20045;-58
2021/09/30 12:41:23;;;;;;;5.47;1.08;;;;;;;;;;5045652;28;20040;-59
2021/09/30 12:43:50;;;;;;;8.15;1.00;;;;;;;;;;5042446;28;20045;-58
2021/09/30 12:46:18;;;;;;;2.97;0.82;;;;;;;;;;5045312;28;20179;-57
2021/09/30 12:48:48;;;;;;;8.20;1.00;;;;;;;;;;5042398;28;20045;-58
2021/09/30 12:51:16;;;;;;;3.40;0.95;;;;;;;;;;5043952;28;20036;-58
2021/09/30 12:53:43;;;;;;;7.05;1.60;;;;;;;;;;5040867;28;20057;-58
2021/09/30 12:56:13;;;;;;;9.77;2.67;;;;;;;;;;5051958;28;20048;-57
2021/09/30 12:58:42;;;;;;;7.00;2.28;;;;;;;;;;5042895;28;20056;-58
2021/09/30 13:01:26;;;;;;;7.43;1.25;;;;;;;;;;5049676;28;20122;-57
2021/09/30 13:04:09;;;;;;;4.45;0.90;;;;;;;;;;5056558;28;20106;-58
2021/09/30 13:06:37;;;;;;;6.05;0.90;;;;;;;;;;5043675;28;20043;-57
2021/09/30 13:09:04;;;;;;;3.55;0.88;;;;;;;;;;5036392;28;20148;-58
2021/09/30 13:11:31;;;;;;;4.45;1.05;;;;;;;;;;5035010;28;20040;-60
2021/09/30 13:14:16;;;;;;;9.30;1.00;;;;;;;;;;5052051;28;20040;-60
2021/09/30 13:16:43;;;;;;;6.47;1.02;;;;;;;;;;5058782;28;20051;-55
2021/09/30 13:19:10;;;;;;;7.57;1.00;;;;;;;;;;5041449;28;20084;-58
2021/09/30 13:21:58;;;;;;;6.05;0.82;;;;;;;;;;5063982;28;20126;-58
2021/09/30 13:24:25;;;;;;;9.20;1.10;;;;;;;;;;5040133;28;20041;-57
2021/09/30 13:26:51;;;;;;;3.30;0.90;;;;;;;;;;5042817;28;20049;-59
2021/09/30 13:29:19;;;;;;;6.18;1.00;;;;;;;;;;5041083;28;20040;-58
2021/09/30 13:31:50;;;;;;;7.50;1.00;;;;;;;;;;5045853;28;20134;-58
2021/09/30 13:34:17;;;;;;;5.40;1.40;;;;;;;;;;5041605;28;20313;-60
2021/09/30 13:36:43;;;;;;;4.43;0.77;;;;;;;;;;5043327;28;20029;-59
2021/09/30 13:39:10;;;;;;;3.55;0.85;;;;;;;;;;5039297;28;20044;-57
2021/09/30 13:41:37;;;;;;;5.55;0.85;;;;;;;;;;5053403;28;20126;-57
2021/09/30 13:44:04;;;;;;;4.20;0.88;;;;;;;;;;5033356;28;20053;-59
2021/09/30 13:46:32;;;;;;;5.72;1.08;;;;;;;;;;5041893;28;20049;-57
2021/09/30 13:48:58;;;;;;;5.82;0.90;;;;;;;;;;5043651;28;20047;-58
2021/09/30 13:51:27;;;;;;;6.28;1.10;;;;;;;;;;5036050;28;20056;-59
2021/09/30 13:53:53;;;;;;;6.63;1.08;;;;;;;;;;5040319;28;20033;-58
2021/09/30 13:56:20;;;;;;;8.02;1.35;;;;;;;;;;5051534;28;20064;-58
2021/09/30 13:58:46;;;;;;;6.47;1.60;;;;;;;;;;5061322;28;20057;-57
2021/09/30 14:01:13;;;;;;;8.93;2.00;;;;;;;;;;5044647;28;20041;-60
2021/09/30 14:03:41;;;;;;;10.70;1.40;;;;;;;;;;5040783;28;20037;-59
2021/09/30 14:06:08;;;;;;;6.87;0.80;;;;;;;;;;5038768;28;20056;-59
2021/09/30 14:08:34;;;;;;;7.60;1.90;;;;;;;;;;5040780;28;20285;-59
2021/09/30 14:11:01;;;;;;;6.47;1.13;;;;;;;;;;5042726;28;20040;-57
2021/09/30 14:13:27;;;;;;;8.20;1.00;;;;;;;;;;5060546;28;20059;-57
2021/09/30 14:15:54;;;;;;;6.85;0.90;;;;;;;;;;5054325;28;20075;-61
2021/09/30 14:18:20;;;;;;;4.88;1.10;;;;;;;;;;5053710;28;20072;-56
2021/09/30 14:20:51;;;;;;;7.43;0.95;;;;;;;;;;5018418;28;20052;-60
2021/09/30 14:23:18;;;;;;;4.95;1.30;;;;;;;;;;5041406;28;20037;-57
2021/09/30 14:25:44;;;;;;;8.48;0.93;;;;;;;;;;5040443;28;20055;-56
2021/09/30 14:28:11;;;;;;;9.82;1.27;;;;;;;;;;5033435;28;20170;-57
2021/09/30 14:30:38;;;;;;;6.47;0.95;;;;;;;;;;5040647;28;20045;-57
2021/09/30 14:33:04;;;;;;;10.13;1.00;;;;;;;;;;5037390;28;20081;-58
2021/09/30 14:35:31;;;;;;;5.75;0.93;;;;;;;;;;5041715;28;20061;-57
2021/09/30 14:37:59;;;;;;;7.90;1.65;;;;;;;;;;5023845;28;20046;-59
2021/09/30 14:40:26;;;;;;;8.77;1.30;;;;;;;;;;5021195;28;20049;-57
2021/09/30 14:42:53;;;;;;;3.90;0.95;;;;;;;;;;5036566;28;20045;-58
2021/09/30 14:45:19;;;;;;;4.38;1.13;;;;;;;;;;5040667;28;20037;-57
2021/09/30 14:47:46;;;;;;;8.60;1.10;;;;;;;;;;5037282;28;20041;-59
2021/09/30 14:50:13;;;;;;;9.15;1.13;;;;;;;;;;5041877;28;20130;-60
2021/09/30 14:52:40;;;;;;;4.65;1.13;;;;;;;;;;5047359;28;20059;-58
2021/09/30 14:55:08;;;;;;;4.28;1.27;;;;;;;;;;5040952;28;20033;-58
2021/09/30 14:57:35;;;;;;;7.78;1.73;;;;;;;;;;5036375;28;20037;-60
2021/09/30 15:00:01;;;;;;;3.60;1.30;;;;;;;;;;5060827;28;20052;-58
2021/09/30 15:02:28;;;;;;;4.80;1.30;;;;;;;;;;5036990;28;20037;-59
2021/09/30 15:04:55;;;;;;;8.85;1.33;;;;;;;;;;5034280;28;20025;-58
2021/09/30 15:07:22;;;;;;;9.85;1.63;;;;;;;;;;5020627;28;20053;-59
2021/09/30 15:09:48;;;;;;;11.60;1.40;;;;;;;;;;5015890;28;20062;-56
2021/09/30 15:12:16;;;;;;;5.43;1.33;;;;;;;;;;5014881;28;20062;-59
2021/09/30 15:14:43;;;;;;;5.72;1.20;;;;;;;;;;5029661;28;20049;-60
2021/09/30 15:17:13;;;;;;;5.53;1.23;;;;;;;;;;5020960;28;20050;-59
2021/09/30 15:20:11;;;;;;;10.45;1.50;;;;;;;;;;5032703;28;20115;-59
2021/09/30 15:22:39;;;;;;;7.50;1.10;;;;;;;;;;5013188;28;20030;-58
2021/09/30 15:25:07;;;;;;;9.13;1.48;;;;;;;;;;5015018;28;20073;-57
2021/09/30 15:27:36;;;;;;;7.47;1.08;;;;;;;;;;5032318;28;20108;-59
2021/09/30 15:30:03;;;;;;;4.57;1.40;;;;;;;;;;5009389;28;20057;-58
2021/09/30 15:32:29;;;;;;;8.77;1.10;;;;;;;;;;5029179;28;20044;-57
2021/09/30 15:34:56;;;;;;;5.03;1.00;;;;;;;;;;5014310;28;20092;-59
2021/09/30 15:37:22;;;;;;;13.07;1.40;;;;;;;;;;5023150;28;20049;-58
2021/09/30 15:39:49;;;;;;;6.05;1.10;;;;;;;;;;5035087;28;20041;-60
2021/09/30 15:42:17;;;;;;;5.32;1.17;;;;;;;;;;5035385;28;20095;-57
2021/09/30 15:44:44;;;;;;;7.33;1.77;;;;;;;;;;5035622;28;20061;-54
2021/09/30 15:47:11;;;;;;;12.23;3.20;;;;;;;;;;5032620;28;20095;-58
2021/09/30 15:49:37;;;;;;;7.18;2.80;;;;;;;;;;5031235;28;20052;-57
2021/09/30 15:52:04;;;;;;;9.32;2.85;;;;;;;;;;5041282;28;20061;-58
2021/09/30 15:54:32;;;;;;;8.13;1.77;;;;;;;;;;5038626;28;20068;-57
2021/09/30 15:56:58;;;;;;;5.28;1.20;;;;;;;;;;5041020;28;20042;-57
2021/09/30 15:59:25;;;;;;;8.00;1.25;;;;;;;;;;5030828;28;20048;-58
2021/09/30 16:01:54;;;;;;;5.90;1.55;;;;;;;;;;5018432;28;20054;-55
2021/09/30 16:04:21;;;;;;;7.82;1.27;;;;;;;;;;5018909;28;20045;-57
2021/09/30 16:06:47;;;;;;;3.90;1.33;;;;;;;;;;5021477;28;20122;-52
2021/09/30 16:09:14;;;;;;;9.35;1.85;;;;;;;;;;5030119;28;20103;-59
2021/09/30 16:11:41;;;;;;;12.57;1.38;;;;;;;;;;5027544;28;20086;-58
2021/09/30 16:14:07;;;;;;;5.20;1.40;;;;;;;;;;5034769;28;20049;-59
2021/09/30 16:16:34;;;;;;;10.15;1.23;;;;;;;;;;5016994;28;20049;-57
2021/09/30 16:19:01;;;;;;;3.65;1.10;;;;;;;;;;5036503;28;20049;-59
2021/09/30 16:21:29;;;;;;;4.70;0.95;;;;;;;;;;5017320;28;20061;-58
2021/09/30 16:23:55;;;;;;;6.45;0.88;;;;;;;;;;5020494;28;20032;-57
2021/09/30 16:26:22;;;;;;;8.63;1.17;;;;;;;;;;5009375;28;20104;-59
2021/09/30 16:28:51;;;;;;;7.00;1.00;;;;;;;;;;5009958;28;20064;-57
2021/09/30 16:31:18;;;;;;;6.32;1.55;;;;;;;;;;5010755;28;20053;-57
2021/09/30 16:33:44;;;;;;;5.90;1.33;;;;;;;;;;5018647;28;20041;-57
2021/09/30 16:36:13;;;;;;;3.88;1.10;;;;;;;;;;5010478;28;20080;-60
2021/09/30 16:38:41;;;;;;;4.45;1.15;;;;;;;;;;5011413;28;20040;-60
2021/09/30 16:41:08;;;;;;;7.32;1.42;;;;;;;;;;5016925;28;20048;-57
2021/09/30 16:43:34;;;;;;;8.82;1.60;;;;;;;;;;5027418;28;20034;-58
2021/09/30 16:46:02;;;;;;;6.88;1.08;;;;;;;;;;5032306;28;20037;-60
2021/09/30 16:48:28;;;;;;;9.10;1.90;;;;;;;;;;5038087;28;20115;-59
2021/09/30 16:50:55;;;;;;;5.45;1.50;;;;;;;;;;5040382;28;20518;-59
2021/09/30 16:53:25;;;;;;;5.80;1.30;;;;;;;;;;5052775;28;20041;-60
2021/09/30 16:55:51;;;;;;;5.60;1.35;;;;;;;;;;5035113;28;20049;-57
2021/09/30 16:58:18;;;;;;;8.13;1.30;;;;;;;;;;5032668;28;20073;-60
2021/09/30 17:00:45;;;;;;;11.15;1.73;;;;;;;;;;5038031;28;20046;-59
2021/09/30 17:03:11;;;;;;;7.88;1.52;;;;;;;;;;5013882;28;20107;-60
2021/09/30 17:05:38;;;;;;;10.70;2.05;;;;;;;;;;5029864;28;20107;-56
2021/09/30 17:08:05;;;;;;;10.68;2.47;;;;;;;;;;5033841;28;20037;-56
2021/09/30 17:10:34;;;;;;;8.20;1.50;;;;;;;;;;5035410;28;20081;-54
2021/09/30 17:13:01;;;;;;;5.22;1.55;;;;;;;;;;5014065;28;20043;-57
2021/09/30 17:15:28;;;;;;;10.05;1.83;;;;;;;;;;5020223;28;20045;-59
2021/09/30 17:17:55;;;;;;;7.60;1.35;;;;;;;;;;5017361;28;20116;-58
2021/09/30 17:20:24;;;;;;;6.35;1.30;;;;;;;;;;5020053;28;20045;-55
2021/09/30 17:22:51;;;;;;;5.05;1.38;;;;;;;;;;5032201;28;20127;-58